Time;durP1;ratioP1;P1;durP2;ratioP2;P2;SDS_P1;SDS_P2;PMS_P1;PMS_P2;Temp;Humidity;BMP_temperature;BMP_pressure;BME280_temperature;BME280_humidity;BME280_pressure;Samples;Min_cycle;Max_cycle;Signal;HPM_P1;HPM_P2
2022/08/12 00:44:39;;;;;;;;;;;;;;;21.97;28.96;97804.78;4955014;28;1287;-76
2022/08/12 00:47:05;;;;;;;;;;;;;;;21.78;29.04;97809.38;4936162;29;1076;-77
2022/08/12 00:49:30;;;;;;;;;;;;;;;21.78;29.22;97815.06;4936309;29;930;-77
2022/08/12 00:52:05;;;;;;;;;;;;;;;21.79;29.25;97822.28;4931343;29;1138;-77
2022/08/12 00:54:41;;;;;;;;;;;;;;;21.68;29.19;97816.16;4879357;29;943;-77
2022/08/12 00:57:11;;;;;;;;;;;;;;;21.44;29.27;97818.47;4842561;29;1903;-77
2022/08/12 00:59:42;;;;;;;;;;;;;;;21.42;29.47;97820.97;4842718;29;990;-77
2022/08/12 01:02:07;;;;;;;;;;;;;;;21.97;28.57;97821.78;4824454;29;1008;-77
2022/08/12 01:12:45;;;;;;;;;;;;;;;21.76;28.85;97803.34;4787863;29;935;-76
2022/08/12 01:15:11;;;;;;;;;;;;;;;21.76;28.53;97812.69;4799582;29;993;-77
2022/08/12 01:17:37;;;;;;;;;;;;;;;21.63;28.63;97811.06;4824357;29;1992;-76
2022/08/12 01:20:04;;;;;;;;;;;;;;;21.72;28.35;97811.97;4824611;29;989;-76
2022/08/12 01:22:48;;;;;;;;;;;;;;;21.61;28.78;97817.19;4847771;29;1194;-76
2022/08/12 01:25:17;;;;;;;;;;;;;;;21.69;28.43;97812.09;4899973;29;966;-77
2022/08/12 01:27:42;;;;;;;;;;;;;;;21.95;28.41;97813.69;4948012;28;993;-76
2022/08/12 01:30:09;;;;;;;;;;;;;;;21.87;29.00;97817.22;4958572;28;993;-77
2022/08/12 01:32:37;;;;;;;;;;;;;;;22.25;29.60;97820.88;4965348;28;1009;-77
2022/08/12 01:35:12;;;;;;;;;;;;;;;22.26;30.48;97805.47;4994039;28;968;-77
2022/08/12 01:38:04;;;;;;;;;;;;;;;22.22;30.96;97816.13;4941824;28;1999;-77
2022/08/12 01:40:33;;;;;;;;;;;;;;;22.14;30.38;97820.44;4901807;29;963;-77
2022/08/12 01:43:08;;;;;;;;;;;;;;;22.01;30.57;97817.56;4883025;29;968;-77
2022/08/12 01:45:34;;;;;;;;;;;;;;;22.19;30.06;97805.69;4920387;29;1095;-77
2022/08/12 01:47:59;;;;;;;;;;;;;;;22.01;29.79;97816.75;4888984;29;1067;-77
2022/08/12 01:50:28;;;;;;;;;;;;;;;21.94;29.81;97805.66;4901803;29;1067;-76
2022/08/12 01:52:54;;;;;;;;;;;;;;;22.03;29.76;97808.63;4939362;29;933;-76
2022/08/12 01:55:20;;;;;;;;;;;;;;;21.82;29.96;97799.53;4939313;29;985;-77
2022/08/12 01:57:48;;;;;;;;;;;;;;;21.79;29.99;97811.75;4939164;29;1906;-77
2022/08/12 02:00:14;;;;;;;;;;;;;;;21.90;29.43;97807.81;4923526;29;961;-77
2022/08/12 02:02:47;;;;;;;;;;;;;;;21.90;29.69;97810.63;4939137;29;1008;-76
2022/08/12 02:11:20;;;;;;;;;;;;;;;21.64;29.67;97804.94;4920098;29;1032;-77
2022/08/12 02:13:45;;;;;;;;;;;;;;;21.58;29.72;97806.75;4901029;29;1179;-76
2022/08/12 02:16:29;;;;;;;;;;;;;;;21.57;29.62;97793.84;4895684;29;1915;-77
2022/08/12 02:18:57;;;;;;;;;;;;;;;21.90;29.27;97800.09;4919957;29;890;-77
2022/08/12 02:21:31;;;;;;;;;;;;;;;21.99;29.31;97797.38;4919714;29;958;-77
2022/08/12 02:23:57;;;;;;;;;;;;;;;22.29;30.36;97793.22;4893763;29;992;-77
2022/08/12 02:26:22;;;;;;;;;;;;;;;22.66;29.95;97793.63;4881987;29;949;-77
2022/08/12 02:28:47;;;;;;;;;;;;;;;22.52;30.50;97782.75;4882389;29;948;-77
2022/08/12 02:31:13;;;;;;;;;;;;;;;22.15;30.66;97793.69;4881871;29;971;-74
2022/08/12 02:33:40;;;;;;;;;;;;;;;22.22;30.17;97782.09;4866633;29;1038;-74
2022/08/12 02:36:05;;;;;;;;;;;;;;;22.06;30.25;97779.38;4858997;29;1974;-75
2022/08/12 02:38:31;;;;;;;;;;;;;;;21.73;30.82;97779.59;4866270;29;947;-74
2022/08/12 02:40:57;;;;;;;;;;;;;;;21.81;30.73;97792.28;4882193;29;1033;-75
2022/08/12 02:43:26;;;;;;;;;;;;;;;21.89;30.41;97784.34;4863179;29;1000;-75
2022/08/12 02:45:55;;;;;;;;;;;;;;;21.87;30.31;97788.91;4898642;29;1143;-74
2022/08/12 02:48:26;;;;;;;;;;;;;;;21.44;30.66;97784.50;4900596;29;993;-75
2022/08/12 02:50:51;;;;;;;;;;;;;;;21.81;30.06;97785.81;4900490;29;959;-74
2022/08/12 02:53:17;;;;;;;;;;;;;;;21.72;30.29;97783.66;4884314;29;994;-75
2022/08/12 02:55:44;;;;;;;;;;;;;;;21.71;30.10;97779.25;4931487;29;959;-77
2022/08/12 02:58:11;;;;;;;;;;;;;;;22.01;29.67;97774.25;4953768;28;1977;-76
2022/08/12 03:00:36;;;;;;;;;;;;;;;21.95;29.74;97776.09;4957329;28;998;-77
2022/08/12 03:03:06;;;;;;;;;;;;;;;21.74;29.95;97781.16;4941274;29;1195;-77
2022/08/12 03:05:34;;;;;;;;;;;;;;;21.73;29.97;97778.78;4956999;28;1054;-77
2022/08/12 03:07:59;;;;;;;;;;;;;;;21.82;29.92;97782.53;4964129;28;1543;-77
2022/08/12 03:10:25;;;;;;;;;;;;;;;21.66;30.27;97779.81;4975593;28;1231;-77
2022/08/12 03:12:56;;;;;;;;;;;;;;;21.74;30.10;97789.66;4975518;28;1243;-77
2022/08/12 03:15:22;;;;;;;;;;;;;;;21.77;29.87;97780.28;4985851;28;1286;-77
2022/08/12 03:17:59;;;;;;;;;;;;;;;21.95;29.60;97781.75;4964433;28;1903;-77
2022/08/12 03:20:25;;;;;;;;;;;;;;;21.68;30.13;97782.97;4962813;28;1120;-77
2022/08/12 03:22:51;;;;;;;;;;;;;;;21.82;29.80;97782.53;4966276;28;1328;-75
2022/08/12 03:25:17;;;;;;;;;;;;;;;21.87;29.79;97780.41;4967097;28;1236;-76
2022/08/12 03:27:50;;;;;;;;;;;;;;;21.63;30.20;97777.06;4990875;28;1215;-75
2022/08/12 03:30:18;;;;;;;;;;;;;;;21.62;29.78;97776.28;4995408;28;1195;-76
2022/08/12 03:32:46;;;;;;;;;;;;;;;21.59;30.06;97774.34;4976337;28;991;-75
2022/08/12 03:35:12;;;;;;;;;;;;;;;21.83;29.60;97778.47;4937804;29;1712;-75
2022/08/12 03:37:38;;;;;;;;;;;;;;;21.66;29.99;97779.81;4928690;29;1970;-75
2022/08/12 03:40:04;;;;;;;;;;;;;;;21.62;29.66;97784.78;4940472;29;1791;-75
2022/08/12 03:42:32;;;;;;;;;;;;;;;21.65;29.52;97783.88;4939482;29;1657;-75
2022/08/12 04:01:24;;;;;;;;;;;;;;;21.88;30.64;97787.66;4917740;29;983;-76
2022/08/12 04:03:53;;;;;;;;;;;;;;;21.65;31.02;97783.88;4948838;28;948;-76
2022/08/12 04:06:25;;;;;;;;;;;;;;;21.70;30.52;97774.81;4973565;28;1347;-76
2022/08/12 04:08:52;;;;;;;;;;;;;;;21.96;30.15;97780.50;4973547;28;1534;-76
2022/08/12 04:14:07;;;;;;;;;;;;;;;21.79;30.47;97779.81;4946972;28;1698;-76
2022/08/12 04:16:32;;;;;;;;;;;;;;;21.93;30.28;97787.09;4951805;29;1907;-76
2022/08/12 04:18:57;;;;;;;;;;;;;;;21.82;30.18;97787.41;4938242;29;1047;-76
2022/08/12 04:21:23;;;;;;;;;;;;;;;22.19;29.63;97788.69;4929994;29;1662;-76
2022/08/12 04:23:48;;;;;;;;;;;;;;;22.00;29.99;97798.19;4956133;29;1234;-76
2022/08/12 04:26:14;;;;;;;;;;;;;;;21.84;30.03;97802.69;4956066;29;948;-76
2022/08/12 04:28:40;;;;;;;;;;;;;;;21.93;29.62;97809.75;4952061;29;1030;-76
2022/08/12 04:31:05;;;;;;;;;;;;;;;21.85;29.78;97815.63;4952410;29;950;-76
2022/08/12 04:33:31;;;;;;;;;;;;;;;21.80;29.86;97810.50;4982246;28;1739;-76
2022/08/12 04:35:56;;;;;;;;;;;;;;;21.83;30.26;97811.66;4936075;29;2046;-76
2022/08/12 04:38:22;;;;;;;;;;;;;;;22.21;30.39;97814.53;4917333;29;1046;-76
2022/08/12 04:40:47;;;;;;;;;;;;;;;22.29;30.64;97809.44;4918197;29;990;-76
2022/08/12 04:43:13;;;;;;;;;;;;;;;22.07;31.03;97806.44;4920961;29;960;-76
2022/08/12 04:45:38;;;;;;;;;;;;;;;22.03;30.96;97808.63;4936352;29;979;-76
2022/08/12 04:48:04;;;;;;;;;;;;;;;22.00;30.57;97812.34;4936359;29;1110;-76
2022/08/12 04:50:30;;;;;;;;;;;;;;;21.97;30.40;97811.22;4946854;29;1286;-76
2022/08/12 04:52:56;;;;;;;;;;;;;;;21.90;30.41;97808.59;4936844;29;1330;-76
2022/08/12 04:55:22;;;;;;;;;;;;;;;22.08;30.04;97811.69;4925614;29;1272;-76
2022/08/12 04:57:48;;;;;;;;;;;;;;;22.02;30.11;97812.69;4916945;29;1911;-76
2022/08/12 05:00:13;;;;;;;;;;;;;;;21.62;30.69;97813.09;4913553;29;991;-76
2022/08/12 05:02:39;;;;;;;;;;;;;;;21.64;30.79;97802.09;4898283;29;1180;-76
2022/08/12 05:05:04;;;;;;;;;;;;;;;21.96;30.33;97803.16;4898591;29;943;-76
2022/08/12 05:07:30;;;;;;;;;;;;;;;21.84;30.54;97807.56;4912197;29;959;-76
2022/08/12 05:09:56;;;;;;;;;;;;;;;21.82;30.47;97816.53;4945091;28;1014;-76
2022/08/12 05:12:22;;;;;;;;;;;;;;;21.83;30.28;97809.63;4957772;28;1399;-77
2022/08/12 05:14:49;;;;;;;;;;;;;;;21.69;30.70;97812.88;4989040;28;1458;-77
2022/08/12 05:17:14;;;;;;;;;;;;;;;21.98;30.07;97812.00;4994042;28;1914;-76
2022/08/12 05:19:41;;;;;;;;;;;;;;;21.77;30.41;97817.09;4999896;28;1760;-76
2022/08/12 05:22:07;;;;;;;;;;;;;;;22.01;30.20;97806.22;4974307;28;1025;-76
2022/08/12 05:24:32;;;;;;;;;;;;;;;21.94;30.00;97817.00;4974525;28;971;-76
2022/08/12 05:26:59;;;;;;;;;;;;;;;21.89;30.38;97826.06;4974273;28;1055;-76
2022/08/12 05:29:24;;;;;;;;;;;;;;;21.84;30.14;97822.53;5018678;28;976;-76
2022/08/12 05:31:55;;;;;;;;;;;;;;;21.65;30.68;97823.50;5043518;28;1610;-76
2022/08/12 05:34:21;;;;;;;;;;;;;;;21.98;30.17;97824.13;5013615;28;1009;-76
2022/08/12 05:36:46;;;;;;;;;;;;;;;21.63;30.35;97820.34;5021339;28;1906;-76
2022/08/12 05:39:12;;;;;;;;;;;;;;;21.81;30.47;97814.94;5032163;28;1455;-76
2022/08/12 05:41:38;;;;;;;;;;;;;;;21.88;30.24;97821.63;5032994;28;1603;-76
2022/08/12 05:44:04;;;;;;;;;;;;;;;21.90;29.85;97819.94;5032793;28;1645;-76
2022/08/12 05:46:30;;;;;;;;;;;;;;;22.05;29.74;97806.13;5032911;28;1074;-76
2022/08/12 05:48:55;;;;;;;;;;;;;;;21.96;30.26;97811.66;5032659;28;1147;-76
2022/08/12 05:51:24;;;;;;;;;;;;;;;21.82;30.35;97810.88;4999865;28;1271;-76
2022/08/12 05:53:50;;;;;;;;;;;;;;;22.10;29.82;97814.06;5034792;28;927;-76
2022/08/12 05:56:23;;;;;;;;;;;;;;;21.76;30.49;97807.00;5041245;28;1911;-77
2022/08/12 05:58:50;;;;;;;;;;;;;;;21.58;30.67;97801.06;5053157;28;2352;-76
2022/08/12 06:01:15;;;;;;;;;;;;;;;21.63;30.90;97796.91;5053775;28;1377;-76
2022/08/12 06:03:41;;;;;;;;;;;;;;;21.81;30.54;97803.63;5055273;28;924;-76
2022/08/12 06:06:06;;;;;;;;;;;;;;;21.92;30.27;97805.34;5036614;28;976;-76
2022/08/12 06:08:34;;;;;;;;;;;;;;;21.69;30.88;97798.72;5055034;28;993;-76
2022/08/12 06:11:01;;;;;;;;;;;;;;;21.98;30.24;97807.13;5055102;28;983;-76
2022/08/12 06:13:26;;;;;;;;;;;;;;;21.85;30.23;97815.63;5054109;28;952;-76
2022/08/12 06:15:52;;;;;;;;;;;;;;;21.89;30.32;97809.06;5054289;28;1519;-76
2022/08/12 06:18:18;;;;;;;;;;;;;;;21.99;30.02;97802.28;5055034;28;2031;-76
2022/08/12 06:20:52;;;;;;;;;;;;;;;21.72;30.77;97805.53;5052933;28;1125;-76
2022/08/12 06:23:17;;;;;;;;;;;;;;;21.88;30.32;97802.59;5055344;28;996;-76
2022/08/12 06:25:43;;;;;;;;;;;;;;;21.85;30.73;97815.63;5058564;28;927;-76
2022/08/12 06:28:16;;;;;;;;;;;;;;;21.99;30.20;97807.94;5059154;28;1034;-76
2022/08/12 06:30:43;;;;;;;;;;;;;;;21.83;30.61;97806.78;5056355;28;1357;-76
2022/08/12 06:33:09;;;;;;;;;;;;;;;21.99;30.28;97813.59;5056774;28;1423;-76
2022/08/12 06:35:34;;;;;;;;;;;;;;;22.03;30.26;97814.28;5059126;28;961;-76
2022/08/12 06:38:02;;;;;;;;;;;;;;;21.56;31.29;97815.69;5058511;28;1910;-76
2022/08/12 06:43:12;;;;;;;;;;;;;;;21.74;31.08;97820.81;5041074;28;1511;-76
2022/08/12 06:45:43;;;;;;;;;;;;;;;21.96;30.59;97820.16;5058670;28;885;-76
2022/08/12 06:48:09;;;;;;;;;;;;;;;22.02;30.37;97824.00;5058414;28;1155;-76
2022/08/12 06:50:35;;;;;;;;;;;;;;;21.87;30.77;97822.88;5058456;28;909;-76
2022/08/12 06:53:04;;;;;;;;;;;;;;;21.94;30.62;97817.78;5058370;28;962;-78
2022/08/12 06:55:30;;;;;;;;;;;;;;;21.78;31.24;97820.72;5058418;28;937;-76
2022/08/12 06:57:56;;;;;;;;;;;;;;;21.97;30.96;97822.56;5033740;28;1922;-76
2022/08/12 07:00:22;;;;;;;;;;;;;;;21.98;31.04;97817.69;5035891;28;944;-76
2022/08/12 07:02:48;;;;;;;;;;;;;;;22.12;30.64;97817.25;5035699;28;956;-76
2022/08/12 07:05:13;;;;;;;;;;;;;;;21.94;30.95;97828.31;5035809;28;1053;-76
2022/08/12 07:07:39;;;;;;;;;;;;;;;21.93;30.88;97826.75;5035547;28;1132;-76
2022/08/12 07:10:05;;;;;;;;;;;;;;;22.05;31.00;97834.44;5035532;28;1000;-76
2022/08/12 07:12:30;;;;;;;;;;;;;;;21.96;31.00;97843.63;5034524;28;1509;-76
2022/08/12 07:14:56;;;;;;;;;;;;;;;22.00;31.20;97843.50;5052092;28;1072;-76
2022/08/12 07:17:22;;;;;;;;;;;;;;;22.02;30.80;97846.69;5052286;28;1905;-76
2022/08/12 07:19:48;;;;;;;;;;;;;;;22.01;30.81;97850.75;5035975;28;1003;-76
2022/08/12 07:22:14;;;;;;;;;;;;;;;21.98;30.67;97852.47;5035580;28;973;-76
2022/08/12 07:24:41;;;;;;;;;;;;;;;21.98;30.79;97858.13;5035530;28;1184;-76
2022/08/12 07:27:06;;;;;;;;;;;;;;;21.91;30.78;97854.72;5027207;28;1517;-76
2022/08/12 07:29:33;;;;;;;;;;;;;;;21.84;30.87;97856.50;5045242;28;1018;-76
2022/08/12 07:31:58;;;;;;;;;;;;;;;21.69;30.93;97858.19;5022273;28;1132;-76
2022/08/12 07:34:25;;;;;;;;;;;;;;;21.96;30.57;97859.81;5054970;28;973;-76
2022/08/12 07:36:51;;;;;;;;;;;;;;;21.96;30.70;97854.16;5054048;28;1967;-76
2022/08/12 07:39:16;;;;;;;;;;;;;;;21.93;30.54;97860.75;5055179;28;934;-76
2022/08/12 07:41:42;;;;;;;;;;;;;;;22.21;30.03;97865.53;5054254;28;1352;-76
2022/08/12 07:44:07;;;;;;;;;;;;;;;21.90;30.83;97855.97;5054613;28;1008;-76
2022/08/12 07:46:35;;;;;;;;;;;;;;;21.95;30.37;97852.56;5054702;28;1148;-76
2022/08/12 07:49:02;;;;;;;;;;;;;;;21.85;30.77;97855.28;5034759;28;1196;-76
2022/08/12 07:51:27;;;;;;;;;;;;;;;21.73;30.72;97858.88;5034729;28;984;-76
2022/08/12 07:53:53;;;;;;;;;;;;;;;21.77;31.02;97859.56;5034848;28;938;-76
2022/08/12 07:56:19;;;;;;;;;;;;;;;21.85;30.52;97849.59;5033873;28;1987;-76
2022/08/12 07:58:44;;;;;;;;;;;;;;;21.88;30.45;97844.28;5034832;28;1140;-76
2022/08/12 08:01:14;;;;;;;;;;;;;;;21.92;30.48;97842.16;5034685;28;1016;-76
2022/08/12 08:06:27;;;;;;;;;;;;;;;21.89;30.70;97860.03;5014053;28;1787;-76
2022/08/12 08:08:55;;;;;;;;;;;;;;;22.05;30.39;97854.28;5014598;28;945;-76
2022/08/12 08:14:08;;;;;;;;;;;;;;;21.88;30.59;97864.13;4973043;28;973;-76
2022/08/12 08:16:36;;;;;;;;;;;;;;;22.01;30.54;97862.09;5014113;28;1915;-76
2022/08/12 08:19:02;;;;;;;;;;;;;;;22.02;30.25;97869.34;5014496;28;966;-76
2022/08/12 08:21:28;;;;;;;;;;;;;;;21.97;30.58;97861.44;5014037;28;1169;-76
2022/08/12 08:26:37;;;;;;;;;;;;;;;21.79;30.75;97862.75;5032740;28;1490;-76
2022/08/12 08:29:03;;;;;;;;;;;;;;;22.03;30.59;97865.28;5054199;28;1042;-76
2022/08/12 08:31:28;;;;;;;;;;;;;;;21.96;30.74;97868.31;5053791;28;906;-76
2022/08/12 08:33:54;;;;;;;;;;;;;;;21.85;30.79;97866.59;5012228;28;1402;-76
2022/08/12 08:36:20;;;;;;;;;;;;;;;21.79;30.93;97868.41;5012400;28;1910;-76
2022/08/12 08:38:47;;;;;;;;;;;;;;;21.89;30.57;97854.38;5033394;28;1162;-76
2022/08/12 08:43:59;;;;;;;;;;;;;;;21.82;30.82;97847.69;5033310;28;1046;-76
2022/08/12 08:46:25;;;;;;;;;;;;;;;21.73;30.86;97858.88;5033335;28;1078;-76
2022/08/12 08:48:51;;;;;;;;;;;;;;;22.05;30.15;97863.56;4992993;28;1438;-76
2022/08/12 08:51:16;;;;;;;;;;;;;;;21.91;30.65;97858.34;4994269;28;1038;-76
2022/08/12 08:53:43;;;;;;;;;;;;;;;22.07;30.11;97848.94;4977660;28;1067;-76
2022/08/12 08:56:12;;;;;;;;;;;;;;;21.97;30.59;97855.75;4994024;28;1983;-76
2022/08/12 08:58:37;;;;;;;;;;;;;;;21.74;30.88;97849.13;4994103;28;967;-76
2022/08/12 09:01:06;;;;;;;;;;;;;;;21.82;30.74;97847.69;4994128;28;1017;-76
2022/08/12 09:03:34;;;;;;;;;;;;;;;21.97;30.49;97844.44;4993515;28;1438;-76
2022/08/12 09:06:01;;;;;;;;;;;;;;;21.91;30.86;97840.53;5031721;28;965;-76
2022/08/12 09:08:27;;;;;;;;;;;;;;;22.12;30.60;97845.59;5033377;28;820;-76
2022/08/12 09:13:26;;;;;;;;;;;;;;;21.90;30.71;97841.78;5032922;28;997;-77
2022/08/12 09:13:37;;;;;;;;;;;;;;;22.08;30.39;97840.00;5033071;28;995;-76
2022/08/12 09:16:05;;;;;;;;;;;;;;;21.92;30.87;97842.16;5032202;28;1988;-76
2022/08/12 09:18:33;;;;;;;;;;;;;;;22.02;30.53;97841.00;5032984;28;1077;-76
2022/08/12 09:20:58;;;;;;;;;;;;;;;22.06;30.55;97841.69;5053062;28;1437;-76
2022/08/12 09:23:26;;;;;;;;;;;;;;;22.10;30.40;97831.88;5055697;28;904;-76
2022/08/12 09:25:51;;;;;;;;;;;;;;;22.11;30.30;97832.66;5055596;28;981;-76
2022/08/12 09:28:19;;;;;;;;;;;;;;;22.07;30.57;97826.28;5055520;28;922;-76
2022/08/12 09:30:47;;;;;;;;;;;;;;;22.03;30.59;97826.41;5055146;28;915;-76
2022/08/12 09:33:13;;;;;;;;;;;;;;;22.09;30.37;97829.47;5055036;28;1001;-76
2022/08/12 09:35:42;;;;;;;;;;;;;;;22.12;30.41;97827.78;5054311;28;1381;-76
2022/08/12 09:38:10;;;;;;;;;;;;;;;21.97;30.53;97827.44;5054927;28;1973;-76
2022/08/12 09:40:36;;;;;;;;;;;;;;;22.07;30.54;97827.09;5052249;28;1158;-76
2022/08/12 09:45:47;;;;;;;;;;;;;;;22.46;29.97;97801.59;5052441;28;1044;-76
2022/08/12 09:48:16;;;;;;;;;;;;;;;22.10;30.13;97819.72;5052725;28;1257;-76
2022/08/12 09:50:43;;;;;;;;;;;;;;;22.05;30.24;97815.41;5031641;28;1480;-76
2022/08/12 09:53:09;;;;;;;;;;;;;;;22.11;30.27;97810.00;5031308;28;1509;-77
2022/08/12 09:55:35;;;;;;;;;;;;;;;22.09;30.48;97806.81;5016254;28;1068;-76
2022/08/12 09:58:01;;;;;;;;;;;;;;;22.07;30.41;97812.13;5015759;28;1981;-76
2022/08/12 10:00:26;;;;;;;;;;;;;;;21.85;30.68;97807.13;5016067;28;1016;-76
2022/08/12 10:02:57;;;;;;;;;;;;;;;22.05;30.08;97791.94;5017022;28;993;-76
2022/08/12 10:05:23;;;;;;;;;;;;;;;21.87;30.50;97791.72;5016034;28;1488;-76
2022/08/12 10:07:48;;;;;;;;;;;;;;;21.87;30.77;97783.22;5016556;28;1069;-76
2022/08/12 10:10:14;;;;;;;;;;;;;;;22.06;30.17;97802.03;5016844;28;1054;-76
2022/08/12 10:15:23;;;;;;;;;;;;;;;22.17;30.03;97802.50;5015630;28;2114;-76
2022/08/12 10:17:49;;;;;;;;;;;;;;;22.20;30.07;97798.00;5015449;28;1988;-76
2022/08/12 10:20:14;;;;;;;;;;;;;;;22.13;30.29;97798.22;5016692;28;991;-76
2022/08/12 10:22:40;;;;;;;;;;;;;;;21.96;30.59;97797.50;5016275;28;856;-76
2022/08/12 10:30:34;;;;;;;;;;;;;;;22.03;30.36;97788.78;5039050;28;1026;-76
2022/08/12 10:32:59;;;;;;;;;;;;;;;22.09;30.29;97784.94;5057812;28;1315;-76
2022/08/12 10:35:30;;;;;;;;;;;;;;;22.15;30.04;97784.38;5058679;28;989;-76
2022/08/12 10:37:56;;;;;;;;;;;;;;;22.14;30.02;97780.75;5058053;28;1903;-76
2022/08/12 10:40:22;;;;;;;;;;;;;;;21.87;30.84;97788.91;5058086;28;1168;-76
2022/08/12 10:45:31;;;;;;;;;;;;;;;21.99;30.26;97790.94;5058154;28;843;-76
2022/08/12 10:47:57;;;;;;;;;;;;;;;22.06;29.79;97780.16;5056749;28;1435;-76
2022/08/12 10:50:23;;;;;;;;;;;;;;;22.18;30.11;97775.78;5058062;28;961;-76
2022/08/12 10:52:48;;;;;;;;;;;;;;;22.08;30.02;97782.56;5055405;28;1018;-76
2022/08/12 10:55:14;;;;;;;;;;;;;;;22.02;30.20;97778.69;5055365;28;936;-76
2022/08/12 10:57:39;;;;;;;;;;;;;;;22.21;30.00;97769.19;5055674;28;1977;-76
2022/08/12 11:00:06;;;;;;;;;;;;;;;22.22;29.96;97776.44;5055570;28;976;-76
2022/08/12 11:02:31;;;;;;;;;;;;;;;22.23;29.95;97777.25;5054697;28;1384;-76
2022/08/12 11:04:58;;;;;;;;;;;;;;;22.09;30.18;97776.44;5055594;28;1013;-76
2022/08/12 11:07:27;;;;;;;;;;;;;;;22.16;30.02;97760.47;5055411;28;935;-76
2022/08/12 11:09:52;;;;;;;;;;;;;;;21.87;30.54;97771.91;5055113;28;1004;-76
2022/08/12 11:12:18;;;;;;;;;;;;;;;22.11;30.01;97759.00;5015597;28;1193;-76
2022/08/12 11:14:43;;;;;;;;;;;;;;;22.02;30.39;97756.00;4995717;28;1014;-76
2022/08/12 11:17:11;;;;;;;;;;;;;;;22.02;30.26;97761.69;4995053;28;1906;-76
2022/08/12 11:19:38;;;;;;;;;;;;;;;22.13;30.09;97762.19;4957399;29;1019;-76
2022/08/12 11:22:03;;;;;;;;;;;;;;;22.14;30.21;97758.09;4956946;29;1082;-76
2022/08/12 11:24:29;;;;;;;;;;;;;;;22.05;30.36;97749.44;4957041;29;974;-76
2022/08/12 11:26:54;;;;;;;;;;;;;;;22.00;30.37;97747.97;4956785;29;962;-76
2022/08/12 11:29:21;;;;;;;;;;;;;;;22.22;30.00;97753.75;4954299;29;1275;-76
2022/08/12 11:31:46;;;;;;;;;;;;;;;22.03;30.42;97757.63;4955865;29;1481;-76
2022/08/12 11:34:12;;;;;;;;;;;;;;;22.20;30.19;97750.59;4956917;29;1003;-76
2022/08/12 11:36:37;;;;;;;;;;;;;;;22.12;30.13;97746.41;4975610;28;1910;-76
2022/08/12 11:39:03;;;;;;;;;;;;;;;22.20;29.96;97750.59;4927674;28;1125;-76
2022/08/12 11:41:28;;;;;;;;;;;;;;;21.93;30.37;97747.44;4975973;28;903;-76
2022/08/12 11:43:54;;;;;;;;;;;;;;;22.09;29.91;97744.47;4975931;28;939;-76
2022/08/12 11:46:19;;;;;;;;;;;;;;;21.85;30.61;97739.13;4975069;28;1342;-76
2022/08/12 11:48:45;;;;;;;;;;;;;;;21.97;30.33;97748.09;4979314;28;1268;-76
2022/08/12 11:51:10;;;;;;;;;;;;;;;21.76;30.54;97753.22;5025986;28;914;-76
2022/08/12 11:53:36;;;;;;;;;;;;;;;22.00;30.35;97750.81;4995162;28;1047;-76
2022/08/12 11:56:05;;;;;;;;;;;;;;;22.11;30.03;97747.66;4995013;28;1032;-76
2022/08/12 11:58:30;;;;;;;;;;;;;;;22.01;30.20;97749.56;4995136;28;1915;-76
2022/08/12 12:00:55;;;;;;;;;;;;;;;21.94;30.43;97749.78;4994541;28;1496;-76
2022/08/12 12:03:21;;;;;;;;;;;;;;;22.17;29.81;97748.66;5024273;28;1012;-76
2022/08/12 12:05:47;;;;;;;;;;;;;;;22.17;29.72;97740.16;5034545;28;959;-76
2022/08/12 12:08:21;;;;;;;;;;;;;;;22.06;29.90;97739.69;5027618;28;961;-76
2022/08/12 12:10:47;;;;;;;;;;;;;;;22.24;29.75;97736.31;5034146;28;1026;-76
2022/08/12 12:13:13;;;;;;;;;;;;;;;22.12;29.80;97729.41;5034275;28;1051;-76
2022/08/12 12:15:38;;;;;;;;;;;;;;;22.27;29.54;97743.91;5033249;28;1459;-76
2022/08/12 12:18:04;;;;;;;;;;;;;;;22.22;29.57;97725.41;5034145;28;1914;-76
2022/08/12 12:20:29;;;;;;;;;;;;;;;21.94;30.20;97720.69;5033943;28;939;-76
2022/08/12 12:22:55;;;;;;;;;;;;;;;22.21;29.59;97735.19;5033601;28;970;-76
2022/08/12 12:25:20;;;;;;;;;;;;;;;22.11;29.79;97733.50;5034096;28;950;-76
2022/08/12 12:27:52;;;;;;;;;;;;;;;22.31;29.38;97731.19;5033887;28;909;-76
2022/08/12 12:30:18;;;;;;;;;;;;;;;22.12;29.94;97726.56;5033173;28;1414;-76
2022/08/12 12:32:43;;;;;;;;;;;;;;;22.19;29.69;97732.03;5033923;28;924;-76
2022/08/12 12:35:09;;;;;;;;;;;;;;;22.16;29.81;97727.25;5033983;28;1078;-76
2022/08/12 12:37:48;;;;;;;;;;;;;;;21.96;30.13;97733.13;5033438;28;1914;-76
2022/08/12 12:40:13;;;;;;;;;;;;;;;22.09;29.91;97733.94;5013632;28;962;-76
2022/08/12 12:42:39;;;;;;;;;;;;;;;21.98;29.86;97727.03;5030698;28;996;-76
2022/08/12 12:45:04;;;;;;;;;;;;;;;21.96;29.83;97718.97;5040202;28;1547;-76
2022/08/12 12:47:30;;;;;;;;;;;;;;;22.16;29.67;97727.25;5036068;28;1369;-76
2022/08/12 12:49:55;;;;;;;;;;;;;;;22.26;29.56;97723.28;5053485;28;1018;-76
2022/08/12 12:52:21;;;;;;;;;;;;;;;22.29;29.32;97725.19;5053435;28;1109;-76
2022/08/12 12:54:51;;;;;;;;;;;;;;;22.21;29.44;97723.84;5053569;28;991;-76
2022/08/12 12:57:16;;;;;;;;;;;;;;;22.10;29.56;97717.72;5053129;28;1910;-76
2022/08/12 13:00:13;;;;;;;;;;;;;;;22.18;29.25;97724.78;5052499;28;1472;-76
2022/08/12 13:02:28;;;;;;;;;;;;;;;21.88;29.99;97722.50;5052960;28;982;-76
2022/08/12 13:04:53;;;;;;;;;;;;;;;21.99;29.67;97728.59;5053171;28;1009;-76
2022/08/12 13:07:20;;;;;;;;;;;;;;;22.04;29.37;97725.22;5053116;28;928;-76
2022/08/12 13:09:45;;;;;;;;;;;;;;;21.95;29.45;97722.25;5033231;28;938;-76
2022/08/12 13:12:11;;;;;;;;;;;;;;;21.89;29.70;97718.41;5035422;28;1031;-76
2022/08/12 13:14:37;;;;;;;;;;;;;;;21.98;29.79;97722.16;5055089;28;1633;-76
2022/08/12 13:17:02;;;;;;;;;;;;;;;21.85;29.78;97724.97;5055397;28;1985;-76
2022/08/12 13:19:29;;;;;;;;;;;;;;;21.91;29.95;97721.56;5055307;28;929;-76
2022/08/12 13:24:39;;;;;;;;;;;;;;;22.03;29.65;97706.63;5055160;28;876;-76
2022/08/12 13:27:04;;;;;;;;;;;;;;;22.04;29.49;97719.53;5055198;28;1016;-76
2022/08/12 13:29:32;;;;;;;;;;;;;;;21.82;29.56;97719.44;5054123;28;1312;-76
2022/08/12 13:32:01;;;;;;;;;;;;;;;22.02;29.29;97722.84;5050932;28;1361;-76
2022/08/12 13:34:26;;;;;;;;;;;;;;;22.28;28.89;97728.50;5054155;28;1582;-76
2022/08/12 13:36:52;;;;;;;;;;;;;;;22.03;29.36;97723.63;5054380;28;1910;-76
2022/08/12 13:39:20;;;;;;;;;;;;;;;21.96;29.58;97718.16;5055198;28;1573;-76
2022/08/12 13:41:46;;;;;;;;;;;;;;;21.97;29.35;97719.78;5038981;28;961;-76
2022/08/12 13:44:11;;;;;;;;;;;;;;;22.14;29.15;97718.44;5035067;28;962;-76
2022/08/12 13:46:39;;;;;;;;;;;;;;;21.91;29.74;97722.38;5035145;28;1064;-76
2022/08/12 13:49:06;;;;;;;;;;;;;;;21.91;29.55;97718.75;5035299;28;1501;-76
2022/08/12 13:51:32;;;;;;;;;;;;;;;22.05;29.17;97726.78;5052195;28;1704;-76
2022/08/12 13:53:57;;;;;;;;;;;;;;;22.06;29.21;97717.03;5038978;28;1274;-76
2022/08/12 13:56:23;;;;;;;;;;;;;;;21.95;29.56;97722.25;5060638;28;1910;-76
2022/08/12 13:58:49;;;;;;;;;;;;;;;21.71;29.99;97731.13;5052467;28;1062;-76
2022/08/12 14:01:20;;;;;;;;;;;;;;;21.63;30.02;97723.28;5052689;28;1064;-76
2022/08/12 14:03:46;;;;;;;;;;;;;;;21.90;29.76;97725.66;5039170;28;1759;-76
2022/08/12 14:06:12;;;;;;;;;;;;;;;21.99;29.65;97717.28;5052521;28;1105;-76
2022/08/12 14:08:37;;;;;;;;;;;;;;;22.08;29.48;97717.38;5032530;28;929;-76
2022/08/12 14:11:03;;;;;;;;;;;;;;;21.98;29.50;97716.50;5032669;28;1078;-76
2022/08/12 14:13:29;;;;;;;;;;;;;;;21.69;29.99;97722.25;5031543;28;1441;-76
2022/08/12 14:15:56;;;;;;;;;;;;;;;21.83;29.74;97721.81;5016019;28;1428;-76
2022/08/12 14:18:24;;;;;;;;;;;;;;;22.02;29.53;97722.00;5036208;28;1906;-76
2022/08/12 14:20:57;;;;;;;;;;;;;;;21.90;29.63;97725.66;5049417;28;1849;-76
2022/08/12 14:23:24;;;;;;;;;;;;;;;22.04;29.48;97725.22;5052263;28;1059;-76
2022/08/12 14:25:50;;;;;;;;;;;;;;;21.99;29.50;97720.13;5012628;28;930;-76
2022/08/12 14:28:16;;;;;;;;;;;;;;;21.90;29.33;97714.34;5012562;28;1083;-76
2022/08/12 14:30:44;;;;;;;;;;;;;;;22.08;29.33;97711.72;5011178;28;1562;-76
2022/08/12 14:33:11;;;;;;;;;;;;;;;22.12;29.22;97715.25;5011428;28;1509;-75
2022/08/12 14:35:36;;;;;;;;;;;;;;;21.93;29.53;97724.75;4979823;28;980;-76
2022/08/12 14:38:38;;;;;;;;;;;;;;;22.05;29.38;97726.78;4973445;28;1902;-76
2022/08/12 14:41:07;;;;;;;;;;;;;;;21.99;29.29;97725.78;4897128;29;1045;-76
2022/08/12 14:43:36;;;;;;;;;;;;;;;21.74;29.77;97716.03;4881581;29;974;-76
2022/08/12 14:46:02;;;;;;;;;;;;;;;21.92;29.58;97717.53;4890342;29;1796;-76